Aérodrome :
LOGIN :

S'inscrire | Disclaimer

   EN    FR    IT 

 










Légende :    VFR   VFR Marginal   IFR   IFR Intensif   IFR Très Intensif
Visi : 
Plafond : 
>= 8 km
>= 3000ft
5 à 8 km
1000 à 3000 ft
1500m à 5 km
500 à 1000 ft
800 à 1500m
200 à 500 ft
< 800m
< 200 ft
Symboles :   Orages  Brouillard  Fortes neiges  Fortes précipitations  Vent > 20 kt
SIGMETs :   Divers  Orages  Givrage  Turbulence  Onde Orograph.  Cendres Volcan.







- Altitude de l'aérodrome : 32 ft
- Code IATA : LKZ


EGUL - RAF Lakenheath

DERNIER METAR :
  • 170256Z AUTO 07005KT 9999 OVC035 09/09 A3020 RMK AO2 SLP230 T00930091 53002

METARs EXPIRÉS :
  • 170156Z AUTO 05005KT 9999 OVC034 09/09 A3020 RMK AO2 SLP230 T00910091

TAF TAF EGUL
Valide du 16 à 21h jusqu'au 18 à 03h UTC


162100Z 1621/1803 VRB06KT 9999 BKN020 QNH3020INS
BECMG 1700/1701 24006KT 5000 BR BKN020 QNH3020INS
TEMPO 1705/1707 8000 BR BKN015
BECMG 1706/1707 33006KT 9999 NSW SCT030 QNH3024INS
BECMG 1717/1718 35009KT 9999 BKN030 QNH3031INS TX16/1713Z TN10/1705Z LAST NO AMDS AFT 1621 NEXT 1705
Pas de NOTAMs connus pour ce terrain.



MET'MAP, la Météo Aéronautique d'un coup d'oeil ! - Copyright ORBIFLY Décembre 2007 - Disclaimer

ORBIFLY MET'MAP TEAM :

Programmation & Développement : Alexandra Zaïnal
Conception & Développement : Baudouin d'Aumeries
Co-Programmation & Développement : Marc-Olivier Méhu
Soutien technique & logistique : Manuel Goepfert

Contact : metmap@orbifly.com




SOURCES & CREDITS :

   NOAA